Time;durP1;ratioP1;P1;durP2;ratioP2;P2;SDS_P1;SDS_P2;PMS_P1;PMS_P2;Temp;Humidity;BMP_temperature;BMP_pressure;BME280_temperature;BME280_humidity;BME280_pressure;Samples;Min_cycle;Max_cycle;Signal;HPM_P1;HPM_P2
2023/05/31 00:02:10;;;;;;;13.40;5.80;;;14.00;95.90;;;;;;7602207;19;20023;-76
2023/05/31 00:04:43;;;;;;;8.98;5.28;;;14.00;95.70;;;;;;7605292;19;21127;-79
2023/05/31 00:07:15;;;;;;;13.30;6.10;;;14.00;95.50;;;;;;7603455;19;20562;-78
2023/05/31 00:09:47;;;;;;;12.95;5.70;;;14.10;95.80;;;;;;7603483;19;20606;-78
2023/05/31 00:12:19;;;;;;;12.25;6.10;;;14.00;95.30;;;;;;7608036;19;20578;-77
2023/05/31 00:14:52;;;;;;;14.32;5.80;;;14.00;95.70;;;;;;7600974;19;20101;-76
2023/05/31 00:17:24;;;;;;;11.30;5.53;;;13.90;95.40;;;;;;7606697;19;20014;-79
2023/05/31 00:20:16;;;;;;;11.55;5.85;;;13.80;95.60;;;;;;7602225;19;20115;-77
2023/05/31 00:22:48;;;;;;;8.48;5.22;;;13.80;95.40;;;;;;7601811;19;20138;-77
2023/05/31 00:25:21;;;;;;;10.00;4.72;;;13.70;95.00;;;;;;7600313;19;20026;-78
2023/05/31 00:27:55;;;;;;;9.18;4.95;;;13.70;94.90;;;;;;7603033;19;20039;-77
2023/05/31 00:30:27;;;;;;;12.20;5.22;;;13.70;95.00;;;;;;7599802;19;20409;-77
2023/05/31 00:32:59;;;;;;;12.90;5.82;;;13.70;94.60;;;;;;7603771;19;20028;-78
2023/05/31 00:35:31;;;;;;;10.90;5.50;;;13.70;94.50;;;;;;7603207;19;20014;-77
2023/05/31 00:38:05;;;;;;;9.55;5.20;;;13.60;94.70;;;;;;7601894;19;20289;-77
2023/05/31 00:40:37;;;;;;;10.23;5.25;;;13.50;94.40;;;;;;7601683;19;20030;-80
2023/05/31 00:43:10;;;;;;;8.07;4.78;;;13.50;94.20;;;;;;7602018;19;20019;-79
2023/05/31 00:45:42;;;;;;;9.07;4.67;;;13.50;94.00;;;;;;7599030;19;20528;-77
2023/05/31 00:48:14;;;;;;;7.95;4.22;;;13.40;94.10;;;;;;7603985;19;20018;-77
2023/05/31 00:50:49;;;;;;;9.68;5.10;;;13.30;93.80;;;;;;7604590;19;20011;-76
2023/05/31 00:53:24;;;;;;;10.27;5.03;;;13.30;94.30;;;;;;7603416;19;20489;-77
2023/05/31 00:55:59;;;;;;;9.45;5.15;;;13.30;94.00;;;;;;7604196;19;20022;-79
2023/05/31 00:58:34;;;;;;;11.93;4.03;;;13.30;93.90;;;;;;7605025;19;20039;-77
2023/05/31 01:01:10;;;;;;;9.95;4.70;;;13.30;94.20;;;;;;7600023;19;20015;-77
2023/05/31 01:03:42;;;;;;;10.40;5.13;;;13.20;94.80;;;;;;7602067;19;20446;-77
2023/05/31 01:06:15;;;;;;;10.50;5.20;;;13.20;94.90;;;;;;7600334;19;20021;-78
2023/05/31 01:08:47;;;;;;;11.10;5.15;;;13.10;95.40;;;;;;7593862;19;20482;-77
2023/05/31 01:11:34;;;;;;;9.20;4.65;;;13.10;95.70;;;;;;7603136;19;20131;-77
2023/05/31 01:14:22;;;;;;;7.88;4.57;;;13.00;95.70;;;;;;7601323;19;20014;-77
2023/05/31 01:17:20;;;;;;;10.95;5.07;;;12.90;96.60;;;;;;7603353;19;20015;-77
2023/05/31 01:19:54;;;;;;;10.13;4.70;;;12.80;96.80;;;;;;7602585;19;20022;-78
2023/05/31 01:22:33;;;;;;;;;;;12.70;97.00;;;;;;7599920;19;20044;-77
2023/05/31 01:25:27;;;;;;;10.05;4.88;;;12.70;97.10;;;;;;7602580;19;19961;-76
2023/05/31 01:28:03;;;;;;;8.10;4.38;;;12.70;97.10;;;;;;7606454;19;20026;-76
2023/05/31 01:30:37;;;;;;;10.82;4.93;;;12.60;96.90;;;;;;7602505;19;20018;-77
2023/05/31 01:33:11;;;;;;;8.80;5.60;;;12.50;97.40;;;;;;7602468;19;20015;-76
2023/05/31 01:35:44;;;;;;;12.13;4.70;;;12.30;97.80;;;;;;7599100;19;20023;-76
2023/05/31 01:38:17;;;;;;;11.15;4.80;;;12.20;98.50;;;;;;7606598;19;20014;-77
2023/05/31 01:40:50;;;;;;;8.95;5.05;;;12.10;99.00;;;;;;7602087;19;20445;-78
2023/05/31 01:43:25;;;;;;;8.73;4.53;;;12.20;99.10;;;;;;7607080;19;20370;-77
2023/05/31 01:45:58;;;;;;;9.05;5.07;;;12.10;99.10;;;;;;7597628;19;20376;-78
2023/05/31 01:48:30;;;;;;;;;;;12.10;98.90;;;;;;7604709;19;20030;-76
2023/05/31 01:51:05;;;;;;;10.10;4.82;;;12.10;98.70;;;;;;7604084;19;20732;-76
2023/05/31 01:53:37;;;;;;;9.77;5.50;;;12.00;98.70;;;;;;7593890;19;20022;-78
2023/05/31 01:56:11;;;;;;;7.95;5.03;;;12.10;98.60;;;;;;7601721;19;20019;-78
2023/05/31 01:58:48;;;;;;;11.20;4.93;;;12.00;98.80;;;;;;7597750;19;20980;-76
2023/05/31 02:01:22;;;;;;;9.27;4.97;;;11.90;99.10;;;;;;7602650;19;20460;-76
2023/05/31 02:03:54;;;;;;;11.13;5.25;;;11.80;99.10;;;;;;7595737;19;22402;-77
2023/05/31 02:06:27;;;;;;;13.98;5.05;;;11.80;99.20;;;;;;7598406;19;20014;-77
2023/05/31 02:08:59;;;;;;;14.20;5.80;;;11.70;99.40;;;;;;7598420;19;20018;-77
2023/05/31 02:11:32;;;;;;;9.25;5.18;;;11.60;99.60;;;;;;7600364;19;20382;-75
2023/05/31 02:14:04;;;;;;;8.73;5.35;;;11.60;99.90;;;;;;7597982;19;20023;-78
2023/05/31 02:16:37;;;;;;;8.23;4.68;;;11.50;99.90;;;;;;7598667;19;20023;-76
2023/05/31 02:19:13;;;;;;;11.38;4.95;;;11.50;99.90;;;;;;7600894;19;20030;-78
2023/05/31 02:21:46;;;;;;;10.73;4.57;;;11.40;99.90;;;;;;7596717;19;20013;-77
2023/05/31 02:24:18;;;;;;;9.75;4.80;;;11.40;99.90;;;;;;7598410;19;20635;-77
2023/05/31 02:26:50;;;;;;;10.00;4.97;;;11.30;99.90;;;;;;7600448;19;20106;-77
2023/05/31 02:29:23;;;;;;;9.05;4.85;;;11.30;99.90;;;;;;7603196;19;20021;-76
2023/05/31 02:31:55;;;;;;;9.65;4.60;;;11.30;99.90;;;;;;7598047;19;20377;-78
2023/05/31 02:34:28;;;;;;;10.00;4.97;;;11.30;99.90;;;;;;7601809;19;20655;-79
2023/05/31 02:37:01;;;;;;;11.35;4.60;;;11.30;99.90;;;;;;7602200;19;20163;-78
2023/05/31 02:39:34;;;;;;;10.63;5.17;;;11.30;99.90;;;;;;7604897;19;20492;-80
2023/05/31 02:42:07;;;;;;;15.27;5.03;;;11.20;99.90;;;;;;7605871;19;21703;-77
2023/05/31 02:44:40;;;;;;;9.70;4.38;;;11.10;99.90;;;;;;7597973;19;20510;-78
2023/05/31 02:47:13;;;;;;;11.87;5.03;;;11.10;99.90;;;;;;7602781;19;20526;-78
2023/05/31 02:49:45;;;;;;;6.47;4.50;;;11.10;99.90;;;;;;7604816;19;20430;-78
2023/05/31 02:52:18;;;;;;;9.07;4.23;;;11.10;99.90;;;;;;7603161;19;20026;-78
2023/05/31 02:55:09;;;;;;;11.40;4.78;;;11.10;99.90;;;;;;7604086;19;20362;-78
2023/05/31 02:57:54;;;;;;;10.85;4.70;;;11.00;99.90;;;;;;7603694;19;20067;-76
2023/05/31 03:00:26;;;;;;;8.57;5.05;;;11.00;99.90;;;;;;7604454;19;20789;-80
2023/05/31 03:02:59;;;;;;;9.77;5.10;;;11.00;99.90;;;;;;7597157;19;20495;-77
2023/05/31 03:05:48;;;;;;;9.90;4.95;;;10.90;99.90;;;;;;7600246;19;20401;-77
2023/05/31 03:08:21;;;;;;;8.32;4.60;;;10.90;99.90;;;;;;7599159;19;20022;-77
2023/05/31 03:10:55;;;;;;;7.55;4.75;;;10.90;99.90;;;;;;7601749;19;20018;-78
2023/05/31 03:13:27;;;;;;;7.32;4.22;;;10.90;99.90;;;;;;7601042;19;20018;-77
2023/05/31 03:16:00;;;;;;;10.38;4.70;;;10.90;99.90;;;;;;7601635;19;20024;-77
2023/05/31 03:18:34;;;;;;;10.93;5.05;;;10.80;99.90;;;;;;7606804;19;20018;-79
2023/05/31 03:21:08;;;;;;;10.77;4.70;;;10.70;99.90;;;;;;7611970;19;20675;-78
2023/05/31 03:23:40;;;;;;;8.32;5.00;;;10.60;99.90;;;;;;7611353;19;20022;-77
2023/05/31 03:26:12;;;;;;;10.73;5.22;;;10.70;99.90;;;;;;7608435;19;20429;-78
2023/05/31 03:28:44;;;;;;;9.80;4.50;;;10.70;99.90;;;;;;7606761;19;20582;-78
2023/05/31 03:31:17;;;;;;;13.05;5.25;;;10.70;99.90;;;;;;7608523;19;20726;-77
2023/05/31 03:33:50;;;;;;;10.93;5.28;;;10.70;99.90;;;;;;7606526;19;20019;-76
2023/05/31 03:36:24;;;;;;;10.10;4.70;;;10.70;99.90;;;;;;7607550;19;20014;-75
2023/05/31 03:38:56;;;;;;;8.88;4.88;;;10.70;99.90;;;;;;7605506;19;21260;-78
2023/05/31 03:41:29;;;;;;;10.45;4.68;;;10.60;99.90;;;;;;7606143;19;20030;-77
2023/05/31 03:44:02;;;;;;;12.57;4.82;;;10.60;99.90;;;;;;7605845;19;20015;-77
2023/05/31 03:46:34;;;;;;;6.65;4.43;;;10.50;99.90;;;;;;7602095;19;20258;-78
2023/05/31 03:49:07;;;;;;;9.27;4.53;;;10.50;99.90;;;;;;7607742;19;20021;-77
2023/05/31 03:51:39;;;;;;;9.63;5.55;;;10.60;99.90;;;;;;7609938;19;20089;-76
2023/05/31 03:54:11;;;;;;;12.10;4.90;;;10.60;99.90;;;;;;7608605;19;20109;-77
2023/05/31 03:56:44;;;;;;;8.75;4.97;;;10.60;99.90;;;;;;7608525;19;20536;-76
2023/05/31 03:59:16;;;;;;;11.73;4.80;;;10.60;99.90;;;;;;7609537;19;20014;-75
2023/05/31 04:01:48;;;;;;;12.30;4.85;;;10.60;99.90;;;;;;7604310;19;20015;-77
2023/05/31 04:04:21;;;;;;;12.05;5.15;;;10.60;99.90;;;;;;7608424;19;20033;-76
2023/05/31 04:06:54;;;;;;;22.25;5.03;;;10.50;99.90;;;;;;7607728;19;20578;-76
2023/05/31 04:09:26;;;;;;;7.70;4.60;;;10.60;99.90;;;;;;7611720;19;20472;-78
2023/05/31 04:12:03;;;;;;;8.60;4.78;;;10.60;99.90;;;;;;7604234;19;20267;-77
2023/05/31 04:14:35;;;;;;;12.45;5.00;;;10.70;99.90;;;;;;7606262;19;20033;-76
2023/05/31 04:17:08;;;;;;;11.27;5.40;;;10.70;99.90;;;;;;7596137;19;20059;-77
2023/05/31 04:19:42;;;;;;;11.68;4.85;;;10.80;99.90;;;;;;7602888;19;20149;-76
2023/05/31 04:22:15;;;;;;;9.00;4.75;;;10.80;99.90;;;;;;7604255;19;20572;-78
2023/05/31 04:24:47;;;;;;;13.98;5.18;;;10.80;99.90;;;;;;7597418;19;20469;-76
2023/05/31 04:27:25;;;;;;;13.75;5.68;;;10.70;99.90;;;;;;7605027;19;20026;-77
2023/05/31 04:29:58;;;;;;;11.88;4.68;;;10.80;99.90;;;;;;7600831;19;20285;-76
2023/05/31 04:32:31;;;;;;;11.38;4.97;;;10.90;99.90;;;;;;7603313;19;20019;-77
2023/05/31 04:35:04;;;;;;;;;;;11.00;99.90;;;;;;7603222;19;20029;-77
2023/05/31 04:37:39;;;;;;;12.93;6.40;;;11.00;99.90;;;;;;7606319;19;19925;-76
2023/05/31 04:40:14;;;;;;;9.75;4.53;;;11.10;99.90;;;;;;7602886;19;20599;-76
2023/05/31 04:42:46;;;;;;;;;;;11.20;99.90;;;;;;7599756;19;20064;-77
2023/05/31 04:45:32;;;;;;;9.02;4.53;;;11.20;99.90;;;;;;7601231;19;19923;-76
2023/05/31 04:48:06;;;;;;;8.43;4.50;;;11.30;99.90;;;;;;7600295;19;20026;-77
2023/05/31 04:50:40;;;;;;;12.50;5.05;;;11.40;99.90;;;;;;7604235;19;20018;-78
2023/05/31 04:53:12;;;;;;;;;;;11.40;99.90;;;;;;7601832;19;20082;-76
2023/05/31 04:55:45;;;;;;;13.40;5.55;;;11.50;99.90;;;;;;7601522;19;20296;-77
2023/05/31 04:58:19;;;;;;;8.63;5.18;;;11.60;99.90;;;;;;7600922;19;20029;-75
2023/05/31 05:00:52;;;;;;;;;;;11.70;99.90;;;;;;7602836;19;20022;-78
2023/05/31 05:03:29;;;;;;;10.50;4.72;;;11.80;99.90;;;;;;7597016;19;19922;-78
2023/05/31 05:06:15;;;;;;;13.20;5.80;;;11.90;99.90;;;;;;7601781;19;20483;-76
2023/05/31 05:08:48;;;;;;;9.07;4.78;;;12.00;99.90;;;;;;7597225;19;20014;-76
2023/05/31 05:11:21;;;;;;;11.93;5.27;;;;;;;;;;7600052;19;20030;-76
2023/05/31 05:13:54;;;;;;;14.98;4.60;;;;;;;;;;7603538;19;20022;-77
2023/05/31 05:16:29;;;;;;;10.60;4.80;;;;;;;;;;7599434;19;20019;-79
2023/05/31 05:19:02;;;;;;;12.95;4.90;;;;;;;;;;7597455;19;20484;-77
2023/05/31 05:21:37;;;;;;;12.15;4.88;;;;;;;;;;7600856;19;20477;-76
2023/05/31 05:24:09;;;;;;;8.52;4.90;;;12.40;99.90;;;;;;7600889;19;20562;-80
2023/05/31 05:26:43;;;;;;;22.75;4.68;;;12.90;99.90;;;;;;7602634;19;21388;-78
2023/05/31 05:29:16;;;;;;;11.68;4.45;;;13.10;99.90;;;;;;7604167;19;20025;-77
2023/05/31 05:31:50;;;;;;;11.85;4.65;;;13.20;99.90;;;;;;7602201;19;20019;-77
2023/05/31 05:34:24;;;;;;;11.15;4.13;;;13.30;99.90;;;;;;7603757;19;20464;-77
2023/05/31 05:37:00;;;;;;;9.65;4.50;;;13.40;99.90;;;;;;7600034;19;20595;-78
2023/05/31 05:39:32;;;;;;;11.20;4.50;;;13.50;99.90;;;;;;7598080;19;20100;-80
2023/05/31 05:42:07;;;;;;;8.50;4.22;;;;;;;;;;7599916;19;20643;-76
2023/05/31 05:44:42;;;;;;;10.60;4.32;;;13.70;99.90;;;;;;7601936;19;20582;-79
2023/05/31 05:47:14;;;;;;;7.72;4.05;;;13.90;99.90;;;;;;7585999;19;20049;-78
2023/05/31 05:49:48;;;;;;;11.27;4.22;;;14.00;99.70;;;;;;7601596;19;20498;-77
2023/05/31 05:52:21;;;;;;;12.65;4.65;;;14.20;99.80;;;;;;7600325;19;20281;-75
2023/05/31 05:54:53;;;;;;;11.45;4.47;;;14.30;98.20;;;;;;7598557;19;20053;-79
2023/05/31 05:57:26;;;;;;;13.18;4.65;;;14.40;98.80;;;;;;7602293;19;20015;-77
2023/05/31 06:00:11;;;;;;;14.75;4.75;;;14.60;97.40;;;;;;7599147;19;20474;-79
2023/05/31 06:02:50;;;;;;;9.25;4.43;;;14.80;96.40;;;;;;7598282;19;20015;-79
2023/05/31 06:05:25;;;;;;;9.68;3.95;;;14.80;95.20;;;;;;7597848;19;20019;-77
2023/05/31 06:08:01;;;;;;;15.30;4.70;;;15.00;95.60;;;;;;7597456;19;20042;-79
2023/05/31 06:10:37;;;;;;;14.35;4.40;;;15.10;94.50;;;;;;7599257;19;20059;-77
2023/05/31 06:13:11;;;;;;;11.40;4.13;;;15.20;94.10;;;;;;7601371;19;20062;-78
2023/05/31 06:15:43;;;;;;;;;;;15.30;94.20;;;;;;7599081;19;20015;-79
2023/05/31 06:18:16;;;;;;;9.63;4.55;;;15.40;92.90;;;;;;7591911;19;19925;-79
2023/05/31 06:20:49;;;;;;;13.63;4.25;;;15.50;92.10;;;;;;7597973;19;20298;-77
2023/05/31 06:23:21;;;;;;;11.20;4.53;;;15.70;92.40;;;;;;7596415;19;20077;-80
2023/05/31 06:25:54;;;;;;;8.65;3.95;;;15.70;91.90;;;;;;7592870;19;20014;-76
2023/05/31 06:28:27;;;;;;;11.77;4.05;;;15.80;91.00;;;;;;7599930;19;20027;-77
2023/05/31 06:31:00;;;;;;;16.40;4.25;;;15.90;91.10;;;;;;7595026;19;20010;-77
2023/05/31 06:33:33;;;;;;;8.32;4.20;;;15.90;90.70;;;;;;7602937;19;21184;-77
2023/05/31 06:36:05;;;;;;;9.18;4.03;;;16.00;90.80;;;;;;7592890;19;20681;-77
2023/05/31 06:38:38;;;;;;;12.63;4.10;;;16.10;90.40;;;;;;7588895;19;20014;-78
2023/05/31 06:41:10;;;;;;;7.68;4.18;;;16.20;90.30;;;;;;7595586;19;20534;-76
2023/05/31 06:43:43;;;;;;;8.13;4.28;;;16.30;89.10;;;;;;7597345;19;20018;-76
2023/05/31 06:46:35;;;;;;;9.45;3.97;;;16.40;88.20;;;;;;7598984;19;20089;-78
2023/05/31 06:49:27;;;;;;;12.52;4.55;;;16.40;88.10;;;;;;7601189;19;20027;-79
2023/05/31 06:52:21;;;;;;;8.35;3.80;;;16.50;88.70;;;;;;7605940;19;20015;-78
2023/05/31 06:55:12;;;;;;;10.18;4.15;;;16.70;87.60;;;;;;7604702;19;20345;-78
2023/05/31 06:57:44;;;;;;;16.30;4.40;;;16.80;87.70;;;;;;7606299;19;20014;-76
2023/05/31 07:00:18;;;;;;;12.13;4.88;;;16.80;85.90;;;;;;7601617;19;20032;-77
2023/05/31 07:02:51;;;;;;;16.02;4.57;;;16.90;87.00;;;;;;7604332;19;20110;-77
2023/05/31 07:05:23;;;;;;;10.95;4.05;;;17.00;85.90;;;;;;7604916;19;20066;-78
2023/05/31 07:07:58;;;;;;;12.15;4.07;;;;;;;;;;7600612;19;20543;-79
2023/05/31 07:10:31;;;;;;;8.70;4.60;;;;;;;;;;7604502;19;21041;-77
2023/05/31 07:13:04;;;;;;;13.82;4.55;;;;;;;;;;7605124;19;20801;-76
2023/05/31 07:15:37;;;;;;;8.57;4.27;;;;;;;;;;7599857;19;20065;-76
2023/05/31 07:18:09;;;;;;;9.00;4.18;;;;;;;;;;7596947;19;20025;-78
2023/05/31 07:20:43;;;;;;;15.43;4.18;;;;;;;;;;7603804;19;20116;-76
2023/05/31 07:23:17;;;;;;;9.35;3.97;;;17.10;87.60;;;;;;7603691;19;20028;-76
2023/05/31 07:25:49;;;;;;;12.53;4.80;;;17.50;83.00;;;;;;7608167;19;20051;-77
2023/05/31 07:28:21;;;;;;;10.90;4.43;;;17.60;82.00;;;;;;7603284;19;20031;-77
2023/05/31 07:30:54;;;;;;;12.50;5.10;;;17.60;81.30;;;;;;7609294;19;20011;-77
2023/05/31 07:33:26;;;;;;;8.10;4.20;;;17.60;82.60;;;;;;7610202;19;20307;-77
2023/05/31 07:36:01;;;;;;;10.10;4.32;;;17.60;82.00;;;;;;7604884;19;20014;-80
2023/05/31 07:38:33;;;;;;;8.73;4.40;;;17.80;81.70;;;;;;7598670;19;20015;-76
2023/05/31 07:41:05;;;;;;;11.30;4.38;;;18.00;81.40;;;;;;7603492;19;20800;-78
2023/05/31 07:43:40;;;;;;;9.57;4.35;;;18.00;80.70;;;;;;7606289;19;20401;-77
2023/05/31 07:46:12;;;;;;;6.65;4.15;;;18.00;79.90;;;;;;7603460;19;20101;-77
2023/05/31 07:48:45;;;;;;;9.07;3.70;;;;;;;;;;7603770;19;20387;-77
2023/05/31 07:51:17;;;;;;;10.30;4.67;;;18.20;81.50;;;;;;7606190;19;20025;-78
2023/05/31 07:53:50;;;;;;;11.15;4.00;;;18.40;78.80;;;;;;7608594;19;20014;-78
2023/05/31 07:56:22;;;;;;;10.77;3.70;;;18.40;79.00;;;;;;7602801;19;20049;-77
2023/05/31 07:58:54;;;;;;;6.80;3.83;;;18.50;78.30;;;;;;7604565;19;20022;-77
2023/05/31 08:01:27;;;;;;;13.82;4.15;;;18.60;79.60;;;;;;7605848;19;20049;-74
2023/05/31 08:04:06;;;;;;;13.33;3.90;;;18.70;78.70;;;;;;7601279;19;20768;-78
2023/05/31 08:06:41;;;;;;;11.50;4.03;;;18.70;76.60;;;;;;7604936;19;21131;-76
2023/05/31 08:09:13;;;;;;;9.18;4.40;;;18.70;77.00;;;;;;7602821;19;20028;-77
2023/05/31 08:11:46;;;;;;;11.80;4.30;;;18.70;77.10;;;;;;7605721;19;20010;-76
2023/05/31 08:14:18;;;;;;;10.65;4.20;;;18.80;78.20;;;;;;7609471;19;20014;-77
2023/05/31 08:16:51;;;;;;;12.00;3.88;;;18.90;75.80;;;;;;7605398;19;20386;-77
2023/05/31 08:19:23;;;;;;;12.07;3.93;;;19.00;74.60;;;;;;7602134;19;20025;-76
2023/05/31 08:21:56;;;;;;;13.57;3.92;;;19.00;73.90;;;;;;7607150;19;20018;-77
2023/05/31 08:24:29;;;;;;;12.77;4.63;;;19.10;76.40;;;;;;7594136;19;20060;-77
2023/05/31 08:27:01;;;;;;;10.55;3.97;;;19.30;74.30;;;;;;7606237;19;20533;-79
2023/05/31 08:29:34;;;;;;;10.00;3.78;;;19.30;74.80;;;;;;7609090;19;20022;-78
2023/05/31 08:32:06;;;;;;;11.45;3.58;;;19.50;72.10;;;;;;7607474;19;20045;-77
2023/05/31 08:34:39;;;;;;;11.68;4.38;;;19.50;72.80;;;;;;7611255;19;20019;-77
2023/05/31 08:37:12;;;;;;;9.68;4.28;;;19.60;72.70;;;;;;7605382;19;20022;-77
2023/05/31 08:39:44;;;;;;;11.52;4.20;;;19.70;71.30;;;;;;7609096;19;20026;-78
2023/05/31 08:42:25;;;;;;;12.17;3.57;;;19.80;69.50;;;;;;7603302;19;20059;-78
2023/05/31 08:44:57;;;;;;;11.73;4.35;;;19.70;68.70;;;;;;7607367;19;20015;-78
2023/05/31 08:47:41;;;;;;;12.38;4.15;;;19.80;68.30;;;;;;7609070;19;20053;-76
2023/05/31 08:50:16;;;;;;;11.02;3.70;;;19.80;66.90;;;;;;7604894;19;20022;-76
2023/05/31 08:52:49;;;;;;;8.50;3.67;;;19.80;66.90;;;;;;7605559;19;20022;-79
2023/05/31 08:55:23;;;;;;;8.70;3.80;;;19.80;65.70;;;;;;7602216;19;20102;-78
2023/05/31 08:57:57;;;;;;;8.77;3.25;;;19.70;66.80;;;;;;7608558;19;20432;-78
2023/05/31 09:00:31;;;;;;;7.20;3.67;;;19.80;66.30;;;;;;7598057;19;20034;-77
2023/05/31 09:03:06;;;;;;;6.72;3.35;;;19.90;64.20;;;;;;7601980;19;20033;-78
2023/05/31 09:05:39;;;;;;;10.80;3.67;;;19.90;64.10;;;;;;7604391;19;20018;-78
2023/05/31 09:08:11;;;;;;;14.40;3.57;;;20.00;64.50;;;;;;7603732;19;20090;-78
2023/05/31 09:10:43;;;;;;;12.57;3.67;;;20.00;64.00;;;;;;7609913;19;20014;-78
2023/05/31 09:13:16;;;;;;;9.85;3.92;;;20.00;64.10;;;;;;7600304;19;20064;-78
2023/05/31 09:15:52;;;;;;;14.05;3.45;;;20.00;61.80;;;;;;7605121;19;20501;-80
2023/05/31 09:18:29;;;;;;;11.27;4.03;;;19.90;61.70;;;;;;7601146;19;20018;-77
2023/05/31 09:21:08;;;;;;;7.13;3.47;;;20.00;63.10;;;;;;7608664;19;20514;-78
2023/05/31 09:23:52;;;;;;;9.95;3.90;;;20.10;61.90;;;;;;7594843;19;20388;-78
2023/05/31 09:26:26;;;;;;;7.95;3.45;;;20.10;62.00;;;;;;7597561;19;20047;-77
2023/05/31 09:28:59;;;;;;;7.72;3.88;;;20.10;61.10;;;;;;7606210;19;20022;-77
2023/05/31 09:31:34;;;;;;;9.80;3.70;;;20.10;61.20;;;;;;7603277;19;20731;-75
2023/05/31 09:34:27;;;;;;;5.47;3.30;;;20.20;60.30;;;;;;7601925;19;20021;-78
2023/05/31 09:37:00;;;;;;;7.85;3.15;;;20.20;60.20;;;;;;7605812;19;20602;-75
2023/05/31 09:39:32;;;;;;;8.65;4.00;;;20.20;60.90;;;;;;7599948;19;20018;-77
2023/05/31 09:42:13;;;;;;;6.18;3.20;;;20.20;60.30;;;;;;7604296;19;20492;-77
2023/05/31 09:44:48;;;;;;;10.77;3.78;;;20.20;61.00;;;;;;7598909;19;20665;-81
2023/05/31 09:47:25;;;;;;;9.13;4.28;;;20.20;60.40;;;;;;7598966;19;20378;-77
2023/05/31 09:50:00;;;;;;;10.30;4.05;;;20.40;60.90;;;;;;7603439;19;20022;-76
2023/05/31 09:52:37;;;;;;;12.52;4.32;;;20.50;61.10;;;;;;7603701;19;20043;-78
2023/05/31 09:55:12;;;;;;;9.93;3.72;;;20.60;61.70;;;;;;7599169;19;20022;-79
2023/05/31 09:57:45;;;;;;;8.15;3.67;;;20.60;58.60;;;;;;7604138;19;20015;-78
2023/05/31 10:00:20;;;;;;;6.40;3.58;;;20.50;59.40;;;;;;7605118;19;20014;-78
2023/05/31 10:02:54;;;;;;;7.22;3.10;;;20.60;60.60;;;;;;7603689;19;20045;-78
2023/05/31 10:05:26;;;;;;;10.52;3.50;;;20.60;58.70;;;;;;7600402;19;20034;-78
2023/05/31 10:07:58;;;;;;;7.55;3.53;;;20.70;59.30;;;;;;7608585;19;20342;-79
2023/05/31 10:10:31;;;;;;;6.65;3.33;;;20.70;58.40;;;;;;7603756;19;20022;-80
2023/05/31 10:13:05;;;;;;;9.77;3.37;;;20.70;57.80;;;;;;7602767;19;20055;-77
2023/05/31 10:15:40;;;;;;;4.97;3.35;;;20.90;58.60;;;;;;7598613;19;20029;-78
2023/05/31 10:18:17;;;;;;;9.15;3.63;;;20.90;56.00;;;;;;7602114;19;20026;-78
2023/05/31 10:20:53;;;;;;;8.32;3.90;;;;;;;;;;7603287;19;20085;-76
2023/05/31 10:23:27;;;;;;;9.77;3.65;;;;;;;;;;7590135;19;20672;-77
2023/05/31 10:26:01;;;;;;;;;;;;;;;;;;7606825;19;20086;-77
2023/05/31 10:28:37;;;;;;;6.07;3.53;;;;;;;;;;7608670;19;19914;-78
2023/05/31 10:31:11;;;;;;;8.27;3.35;;;;;;;;;;7609156;19;20014;-79
2023/05/31 10:33:48;;;;;;;13.68;3.97;;;;;;;;;;7609800;19;20019;-80
2023/05/31 10:36:21;;;;;;;7.75;3.28;;;;;;;;;;7606003;19;20092;-77
2023/05/31 10:39:00;;;;;;;8.98;3.67;;;;;;;;;;7603658;19;20018;-79
2023/05/31 10:41:37;;;;;;;13.27;4.03;;;;;;;;;;7603934;19;20052;-77
2023/05/31 10:44:12;;;;;;;9.38;3.80;;;;;;;;;;7607973;19;20018;-76
2023/05/31 10:46:47;;;;;;;9.77;3.85;;;;;;;;;;7608278;19;20040;-77
2023/05/31 10:49:20;;;;;;;9.88;3.35;;;;;;;;;;7607032;19;20785;-78
2023/05/31 10:51:53;;;;;;;8.30;4.20;;;;;;;;;;7610180;19;20508;-77
2023/05/31 10:54:29;;;;;;;9.63;3.80;;;;;;;;;;7608520;19;20030;-77
2023/05/31 10:57:03;;;;;;;11.77;3.88;;;;;;;;;;7608993;19;20520;-76
2023/05/31 10:59:45;;;;;;;6.78;3.53;;;;;;;;;;7608601;19;20078;-77
2023/05/31 11:02:17;;;;;;;6.47;3.63;;;;;;;;;;7614625;19;20028;-77
2023/05/31 11:04:52;;;;;;;7.22;3.85;;;;;;;;;;7606307;19;20113;-79
2023/05/31 11:07:28;;;;;;;9.18;3.60;;;21.00;56.00;;;;;;7607455;19;20022;-77
2023/05/31 11:10:01;;;;;;;12.23;4.00;;;24.30;49.20;;;;;;7609820;19;20389;-75
2023/05/31 11:12:40;;;;;;;8.25;3.55;;;24.30;51.20;;;;;;7611718;19;20018;-77
2023/05/31 11:15:14;;;;;;;5.88;3.53;;;24.30;50.40;;;;;;7610078;19;20018;-81
2023/05/31 11:17:54;;;;;;;7.13;3.72;;;24.40;49.60;;;;;;7611823;19;20112;-77
2023/05/31 11:20:27;;;;;;;7.32;3.80;;;24.20;48.30;;;;;;7610767;19;20845;-76
2023/05/31 11:23:18;;;;;;;8.57;4.22;;;24.10;50.10;;;;;;7607896;19;20082;-77
2023/05/31 11:26:14;;;;;;;9.48;3.92;;;24.30;50.90;;;;;;7609606;19;20018;-76
2023/05/31 11:28:59;;;;;;;8.68;3.78;;;24.60;49.80;;;;;;7609996;19;20014;-78
2023/05/31 11:32:01;;;;;;;7.93;3.92;;;24.80;48.60;;;;;;7604497;19;20018;-77
2023/05/31 11:34:34;;;;;;;7.90;4.25;;;24.80;47.40;;;;;;7602357;19;20696;-77
2023/05/31 11:37:06;;;;;;;8.88;4.07;;;24.60;48.70;;;;;;7605923;19;20015;-77
2023/05/31 11:39:44;;;;;;;10.38;3.92;;;24.90;49.10;;;;;;7610500;19;20939;-78
2023/05/31 11:42:16;;;;;;;8.35;3.30;;;24.80;48.80;;;;;;7608435;19;20691;-79
2023/05/31 11:44:50;;;;;;;5.38;3.35;;;25.10;48.00;;;;;;7604142;19;20021;-77
2023/05/31 11:47:26;;;;;;;12.93;4.18;;;25.00;46.60;;;;;;7606917;19;20052;-79
2023/05/31 11:49:58;;;;;;;6.03;3.80;;;25.00;48.10;;;;;;7609593;19;20023;-78
2023/05/31 11:52:31;;;;;;;11.43;3.97;;;25.00;47.10;;;;;;7603934;19;20564;-76
2023/05/31 11:55:07;;;;;;;9.48;4.05;;;25.10;48.10;;;;;;7604652;19;20992;-77
2023/05/31 11:57:54;;;;;;;6.50;3.30;;;25.40;49.30;;;;;;7604568;19;20026;-76
2023/05/31 12:00:27;;;;;;;5.30;3.30;;;25.70;47.50;;;;;;7601967;19;20059;-76
2023/05/31 12:03:04;;;;;;;8.55;3.80;;;25.80;47.20;;;;;;7603775;19;20018;-77
2023/05/31 12:05:36;;;;;;;10.07;4.03;;;25.70;46.60;;;;;;7600966;19;20067;-76
2023/05/31 12:08:12;;;;;;;7.47;4.18;;;25.80;46.20;;;;;;7610586;19;20018;-77
2023/05/31 12:10:45;;;;;;;8.07;3.88;;;25.80;45.90;;;;;;7606585;19;20048;-77
2023/05/31 12:13:18;;;;;;;8.77;3.70;;;25.80;45.30;;;;;;7611438;19;20409;-76
2023/05/31 12:15:53;;;;;;;9.32;3.95;;;25.70;47.00;;;;;;7603669;19;20643;-76
2023/05/31 12:18:26;;;;;;;10.10;3.92;;;26.00;45.70;;;;;;7606406;19;20022;-77
2023/05/31 12:21:03;;;;;;;8.95;3.97;;;26.20;46.00;;;;;;7607434;19;20018;-75
2023/05/31 12:23:57;;;;;;;9.27;3.70;;;26.30;46.00;;;;;;7603526;19;20520;-75
2023/05/31 12:26:36;;;;;;;9.52;4.32;;;26.20;46.00;;;;;;7598540;19;20019;-77
2023/05/31 12:29:08;;;;;;;10.88;4.10;;;26.40;46.30;;;;;;7601228;19;20025;-76
2023/05/31 12:31:41;;;;;;;7.10;4.00;;;26.40;46.60;;;;;;7606897;19;20056;-76
2023/05/31 12:34:17;;;;;;;11.15;4.32;;;26.40;47.40;;;;;;7603572;19;20283;-77
2023/05/31 12:36:50;;;;;;;8.60;4.10;;;26.70;47.40;;;;;;7605769;19;20046;-76
2023/05/31 12:39:24;;;;;;;19.17;4.22;;;26.80;45.90;;;;;;7600336;19;20018;-77
2023/05/31 12:41:58;;;;;;;6.43;3.88;;;26.90;46.60;;;;;;7605113;19;20024;-76
2023/05/31 12:44:31;;;;;;;9.50;4.00;;;26.80;45.90;;;;;;7599754;19;20436;-77
2023/05/31 12:47:07;;;;;;;10.18;4.30;;;26.90;47.10;;;;;;7603116;19;20018;-77
2023/05/31 12:49:41;;;;;;;7.07;4.00;;;27.10;46.20;;;;;;7601301;19;20038;-78
2023/05/31 12:52:15;;;;;;;7.55;3.65;;;27.20;45.90;;;;;;7604484;19;20082;-77
2023/05/31 12:54:47;;;;;;;6.90;4.22;;;27.20;45.60;;;;;;7604009;19;20026;-78
2023/05/31 12:57:20;;;;;;;5.80;3.97;;;27.20;45.40;;;;;;7604492;19;20018;-76
2023/05/31 13:00:11;;;;;;;6.75;3.90;;;27.60;44.30;;;;;;7604440;19;20063;-76
2023/05/31 13:02:44;;;;;;;7.72;4.20;;;27.60;46.10;;;;;;7602196;19;20060;-77
2023/05/31 13:05:16;;;;;;;10.90;3.95;;;27.60;44.70;;;;;;7598961;19;20018;-78
2023/05/31 13:07:48;;;;;;;8.55;4.47;;;28.00;45.40;;;;;;7603265;19;20018;-77
2023/05/31 13:10:21;;;;;;;7.68;4.40;;;27.90;44.80;;;;;;7607072;19;20032;-76
2023/05/31 13:12:53;;;;;;;11.93;4.32;;;27.90;45.10;;;;;;7603777;19;20056;-77
2023/05/31 13:15:26;;;;;;;9.23;4.15;;;27.60;45.50;;;;;;7599936;19;20039;-77
2023/05/31 13:17:58;;;;;;;8.80;4.57;;;27.60;44.80;;;;;;7603608;19;20007;-77
2023/05/31 13:20:31;;;;;;;9.05;4.40;;;27.60;44.60;;;;;;7603089;19;20468;-77
2023/05/31 13:23:03;;;;;;;9.15;4.68;;;27.90;44.60;;;;;;7604169;19;20026;-76
2023/05/31 13:25:35;;;;;;;10.30;4.57;;;27.90;45.60;;;;;;7599608;19;20618;-78
2023/05/31 13:28:08;;;;;;;9.60;4.05;;;27.70;44.80;;;;;;7606223;19;20847;-78
2023/05/31 13:30:40;;;;;;;10.52;3.83;;;28.00;45.90;;;;;;7599209;19;20036;-77
2023/05/31 13:33:12;;;;;;;5.77;4.27;;;28.10;45.90;;;;;;7602363;19;20043;-77